Pagrindinis puslapis
METAR-TAF:

METAR-TAF

Oro uostai :

Reštas, Iranas

platuma: 37-12N, ilguma: 049-38E, Aukštis: -7 m

Dabartinis oras

Ataskaita buvo paskelbta 38 minutes, ne 13:00 UTC
Vėjas 8 kt iš Šiaurės
Temperatūra 29°C
Drėgmė 58%
Slėgis 1005 hPa
Matomumas 10 km arba daugiau
Mažai debesys ne aukštis 2000 ft, aukštai iškilę kamuoliniai debesys.

METAR: OIGG 131300Z 35008KT 9999 FEW020TCU 29/20 Q1005

Laikas: 18:08 (13:38 UTC)


TAF: trūkstamas

Orai ataskaitas ir orų prognozės (METAR, TAF).

turimą stotys yra geltonos ir raudonos taškus žemėlapyje.

Perkelti pele per norėdami pamatyti stoties vardą.

Tada spustelėkite, norėdami matyti oro stebėjimo ir prognozės.

Norėdami pakeisti žemėlapį: spustelėkite ant žalios mygtukų su juodo kryžiaus žemyn,; žalią mygtuką su brūkšneliu, jei norite nutolinti; arba žalių rodyklių gretimoms žemėlapius.


METAR-TAF: